Time;durP1;ratioP1;P1;durP2;ratioP2;P2;SDS_P1;SDS_P2;PMS_P1;PMS_P2;Temp;Humidity;BMP_temperature;BMP_pressure;BME280_temperature;BME280_humidity;BME280_pressure;Samples;Min_cycle;Max_cycle;Signal;HPM_P1;HPM_P2
2023/12/19 00:01:36;;;;;;;14.18;9.15;;;7.60;74.70;;;;;;5089739;28;20028;-61
2023/12/19 00:04:03;;;;;;;14.55;10.10;;;7.70;74.90;;;;;;5090122;28;20502;-61
2023/12/19 00:06:30;;;;;;;12.57;9.27;;;7.70;75.00;;;;;;5071280;28;20410;-61
2023/12/19 00:09:01;;;;;;;12.77;9.27;;;7.70;75.00;;;;;;5072725;28;20035;-61
2023/12/19 00:11:29;;;;;;;13.95;8.95;;;7.70;75.00;;;;;;5097075;22;20052;-55
2023/12/19 00:13:56;;;;;;;15.82;9.73;;;7.70;75.00;;;;;;5005438;28;20042;-51
2023/12/19 00:16:25;;;;;;;15.90;9.10;;;7.70;74.90;;;;;;4990113;28;20113;-51
2023/12/19 00:18:52;;;;;;;13.93;10.02;;;7.70;74.90;;;;;;4990963;28;20122;-55
2023/12/19 00:21:20;;;;;;;14.68;9.40;;;7.70;74.90;;;;;;4991701;28;20496;-51
2023/12/19 00:23:51;;;;;;;13.65;9.55;;;7.70;74.90;;;;;;4993529;28;20049;-51
2023/12/19 00:26:17;;;;;;;14.60;9.05;;;7.70;74.90;;;;;;4990678;28;20589;-55
2023/12/19 00:28:44;;;;;;;14.63;10.20;;;7.70;75.00;;;;;;4990930;28;20073;-52
2023/12/19 00:31:21;;;;;;;14.88;9.73;;;7.70;75.00;;;;;;4990542;28;20054;-53
2023/12/19 00:33:48;;;;;;;14.05;10.18;;;7.70;75.20;;;;;;4992032;28;20054;-55
2023/12/19 00:36:23;;;;;;;13.85;9.48;;;7.70;75.00;;;;;;4990566;28;20121;-52
2023/12/19 00:38:55;;;;;;;18.38;9.98;;;7.70;75.30;;;;;;4990264;28;20452;-53
2023/12/19 00:41:22;;;;;;;14.50;9.88;;;7.70;75.10;;;;;;4993387;28;20066;-55
2023/12/19 00:43:53;;;;;;;11.60;8.75;;;7.70;75.10;;;;;;4990607;28;20069;-51
2023/12/19 00:46:20;;;;;;;15.20;10.77;;;7.70;75.20;;;;;;4990368;28;20050;-55
2023/12/19 00:48:46;;;;;;;13.60;9.77;;;7.60;75.20;;;;;;4994183;28;20041;-57
2023/12/19 00:51:15;;;;;;;16.27;10.43;;;7.60;75.20;;;;;;4992520;28;20046;-53
2023/12/19 00:53:45;;;;;;;13.43;9.98;;;7.60;75.30;;;;;;4995401;28;20129;-52
2023/12/19 00:56:12;;;;;;;13.02;9.35;;;7.60;75.30;;;;;;4992111;28;20049;-55
2023/12/19 00:58:40;;;;;;;13.38;9.52;;;7.70;75.50;;;;;;4995372;28;20122;-52
2023/12/19 01:01:07;;;;;;;13.90;9.70;;;7.60;75.50;;;;;;4990526;28;20532;-52
2023/12/19 01:03:35;;;;;;;13.15;9.23;;;7.60;75.50;;;;;;4989782;28;20050;-53
2023/12/19 01:06:03;;;;;;;15.68;10.43;;;7.60;75.50;;;;;;4992741;28;20050;-54
2023/12/19 01:08:37;;;;;;;15.70;10.25;;;7.60;75.60;;;;;;4990527;28;20125;-53
2023/12/19 01:11:07;;;;;;;15.65;10.27;;;7.60;75.70;;;;;;4998185;28;20394;-53
2023/12/19 01:13:36;;;;;;;;;;;7.70;75.80;;;;;;4990439;28;20521;-55
2023/12/19 01:16:06;;;;;;;14.82;9.45;;;7.70;76.00;;;;;;4989896;28;19976;-55
2023/12/19 01:18:33;;;;;;;13.55;9.90;;;7.70;75.50;;;;;;4989520;28;20405;-56
2023/12/19 01:21:01;;;;;;;18.15;10.93;;;7.70;75.60;;;;;;4990735;28;20118;-55
2023/12/19 01:23:28;;;;;;;15.82;10.43;;;7.70;75.70;;;;;;4992646;28;20493;-52
2023/12/19 01:25:55;;;;;;;15.82;11.15;;;7.70;75.80;;;;;;4992523;28;20039;-54
2023/12/19 01:28:24;;;;;;;16.20;10.98;;;7.80;75.90;;;;;;4989885;28;20050;-53
2023/12/19 01:30:53;;;;;;;15.43;10.13;;;7.80;76.00;;;;;;4990369;28;20066;-57
2023/12/19 01:33:25;;;;;;;12.77;9.65;;;7.80;76.10;;;;;;4995700;28;20077;-54
2023/12/19 01:35:52;;;;;;;15.00;10.13;;;7.80;76.20;;;;;;4994141;28;20046;-52
2023/12/19 01:38:19;;;;;;;15.00;10.25;;;7.80;76.10;;;;;;4993265;28;20073;-54
2023/12/19 01:40:45;;;;;;;17.17;10.80;;;7.80;76.10;;;;;;4994178;28;20042;-54
2023/12/19 01:43:22;;;;;;;17.75;11.32;;;7.90;76.30;;;;;;4993922;28;20038;-57
2023/12/19 01:45:51;;;;;;;16.70;10.30;;;7.80;76.20;;;;;;4989975;28;20061;-57
2023/12/19 01:48:20;;;;;;;15.15;11.13;;;7.90;76.30;;;;;;4993628;28;20047;-54
2023/12/19 01:50:50;;;;;;;18.60;10.85;;;7.90;76.30;;;;;;4994891;28;20038;-52
2023/12/19 01:53:19;;;;;;;17.90;10.70;;;7.90;76.20;;;;;;4994314;28;20042;-54
2023/12/19 01:55:49;;;;;;;16.23;10.88;;;7.90;76.30;;;;;;4997515;28;20049;-54
2023/12/19 01:58:15;;;;;;;15.68;10.77;;;7.90;76.40;;;;;;4998406;28;20088;-52
2023/12/19 02:00:42;;;;;;;16.83;11.30;;;7.90;76.50;;;;;;4993521;28;20039;-55
2023/12/19 02:03:09;;;;;;;15.88;10.70;;;8.00;76.50;;;;;;4993379;28;20507;-54
2023/12/19 02:05:41;;;;;;;18.15;10.95;;;8.00;76.50;;;;;;4993943;28;20098;-57
2023/12/19 02:08:12;;;;;;;14.70;10.55;;;8.00;76.60;;;;;;4989388;28;20053;-54
2023/12/19 02:10:39;;;;;;;18.25;11.73;;;8.00;76.60;;;;;;4975872;28;20150;-55
2023/12/19 02:13:05;;;;;;;17.65;11.52;;;8.00;76.60;;;;;;4993724;28;20078;-54
2023/12/19 02:15:32;;;;;;;21.08;11.82;;;8.00;76.70;;;;;;4992969;28;20394;-52
2023/12/19 02:18:19;;;;;;;19.30;11.70;;;8.10;76.70;;;;;;4992989;28;20046;-54
2023/12/19 02:20:47;;;;;;;16.92;11.95;;;8.10;76.90;;;;;;4993237;28;20844;-54
2023/12/19 02:23:15;;;;;;;17.27;11.50;;;8.10;76.60;;;;;;4997619;28;20043;-57
2023/12/19 02:25:42;;;;;;;16.55;10.90;;;8.10;76.60;;;;;;4995435;28;20393;-53
2023/12/19 02:28:09;;;;;;;16.65;10.70;;;8.10;76.60;;;;;;4993001;28;20084;-56
2023/12/19 02:30:38;;;;;;;18.77;11.73;;;8.10;76.80;;;;;;4990919;28;20050;-55
2023/12/19 02:33:12;;;;;;;21.15;11.48;;;8.10;76.80;;;;;;4994017;28;20038;-57
2023/12/19 02:35:38;;;;;;;17.05;11.55;;;8.10;76.80;;;;;;4992845;28;20070;-54
2023/12/19 02:38:05;;;;;;;16.52;11.43;;;8.20;76.80;;;;;;4992736;28;20122;-54
2023/12/19 02:40:32;;;;;;;16.73;10.77;;;8.20;76.90;;;;;;4992835;28;20054;-52
2023/12/19 02:43:01;;;;;;;15.43;10.70;;;8.20;76.90;;;;;;4993073;28;20153;-55
2023/12/19 02:45:34;;;;;;;16.02;11.23;;;8.20;76.90;;;;;;4992496;28;20038;-56
2023/12/19 02:48:01;;;;;;;18.20;11.13;;;8.20;76.90;;;;;;4992746;28;20112;-57
2023/12/19 02:50:29;;;;;;;14.52;10.18;;;8.20;76.80;;;;;;4993158;28;20042;-53
2023/12/19 02:52:56;;;;;;;18.23;11.30;;;8.30;76.80;;;;;;4992069;28;20049;-55
2023/12/19 02:55:23;;;;;;;18.15;11.48;;;8.30;76.80;;;;;;4992789;28;20505;-52
2023/12/19 02:57:51;;;;;;;14.38;10.10;;;8.30;76.80;;;;;;4992966;28;20046;-52
2023/12/19 03:00:17;;;;;;;14.35;10.15;;;8.30;76.90;;;;;;4992062;28;20669;-55
2023/12/19 03:02:44;;;;;;;16.38;10.63;;;8.30;76.90;;;;;;4992371;28;20042;-56
2023/12/19 03:05:12;;;;;;;17.85;11.93;;;8.30;76.90;;;;;;4992384;28;20043;-52
2023/12/19 03:07:39;;;;;;;16.13;10.60;;;8.30;76.90;;;;;;4992778;28;20089;-54
2023/12/19 03:10:08;;;;;;;15.50;10.50;;;8.30;76.80;;;;;;4993004;28;20062;-53
2023/12/19 03:12:37;;;;;;;16.00;10.43;;;8.40;76.90;;;;;;4991759;28;20421;-55
2023/12/19 03:15:05;;;;;;;15.27;10.60;;;8.40;76.90;;;;;;4993525;28;20413;-51
2023/12/19 03:17:37;;;;;;;13.57;9.70;;;8.40;76.80;;;;;;4991625;28;20038;-55
2023/12/19 03:20:07;;;;;;;13.63;9.88;;;8.40;76.90;;;;;;4992206;28;20070;-52
2023/12/19 03:22:34;;;;;;;14.73;9.57;;;8.40;76.80;;;;;;4991780;28;20042;-53
2023/12/19 03:25:05;;;;;;;13.02;9.68;;;8.40;76.70;;;;;;4992206;28;20062;-55
2023/12/19 03:27:34;;;;;;;14.13;9.65;;;8.40;76.70;;;;;;4991832;28;20072;-55
2023/12/19 03:30:04;;;;;;;13.90;9.32;;;8.40;76.70;;;;;;4991933;28;20039;-52
2023/12/19 03:32:31;;;;;;;13.45;9.13;;;8.50;76.70;;;;;;4991767;28;20050;-55
2023/12/19 03:35:02;;;;;;;12.43;9.13;;;8.40;76.60;;;;;;4991742;28;20057;-55
2023/12/19 03:37:31;;;;;;;14.82;10.20;;;8.40;76.60;;;;;;4990919;28;20046;-55
2023/12/19 03:40:00;;;;;;;12.35;9.30;;;8.50;76.70;;;;;;4995168;28;20125;-57
2023/12/19 03:42:27;;;;;;;17.80;10.50;;;8.50;76.70;;;;;;4992164;28;20057;-55
2023/12/19 03:44:54;;;;;;;14.23;9.85;;;8.40;76.60;;;;;;4991457;28;20437;-57
2023/12/19 03:47:23;;;;;;;12.15;9.30;;;8.40;76.80;;;;;;4991657;28;20444;-52
2023/12/19 03:49:50;;;;;;;12.32;8.70;;;8.40;76.80;;;;;;4994721;28;20130;-54
2023/12/19 03:52:19;;;;;;;11.80;8.63;;;8.40;76.90;;;;;;4991642;28;20121;-53
2023/12/19 03:54:45;;;;;;;13.07;9.18;;;8.40;76.90;;;;;;4991194;28;20070;-55
2023/12/19 03:57:12;;;;;;;10.73;7.72;;;8.40;77.00;;;;;;4992024;28;20401;-52
2023/12/19 03:59:45;;;;;;;11.50;7.68;;;8.40;77.10;;;;;;4991042;28;20093;-57
2023/12/19 04:02:16;;;;;;;10.80;8.23;;;8.40;77.20;;;;;;4991277;28;20068;-52
2023/12/19 04:04:45;;;;;;;11.90;8.07;;;8.40;77.30;;;;;;4990692;28;20071;-56
2023/12/19 04:07:15;;;;;;;12.88;8.05;;;8.40;77.40;;;;;;4993235;28;20057;-56
2023/12/19 04:09:45;;;;;;;12.20;8.95;;;8.40;77.50;;;;;;4992084;28;20096;-54
2023/12/19 04:12:16;;;;;;;10.75;8.10;;;8.40;77.60;;;;;;4991134;28;20046;-56
2023/12/19 04:14:45;;;;;;;12.13;8.70;;;8.40;77.80;;;;;;4990343;28;20532;-53
2023/12/19 04:17:14;;;;;;;10.40;8.43;;;8.40;77.90;;;;;;4993340;28;20048;-55
2023/12/19 04:19:42;;;;;;;9.75;7.75;;;8.40;77.90;;;;;;4990973;28;20134;-56
2023/12/19 04:22:09;;;;;;;11.30;8.23;;;8.40;78.00;;;;;;4990913;28;20488;-54
2023/12/19 04:24:35;;;;;;;12.52;8.98;;;8.40;78.00;;;;;;4990892;28;20046;-57
2023/12/19 04:27:03;;;;;;;11.25;8.20;;;8.40;78.10;;;;;;4990895;28;20129;-55
2023/12/19 04:29:33;;;;;;;12.38;8.88;;;8.40;78.10;;;;;;4990636;28;20170;-54
2023/12/19 04:31:59;;;;;;;11.73;8.63;;;8.40;78.10;;;;;;4990414;28;20416;-56
2023/12/19 04:34:32;;;;;;;12.40;8.40;;;8.40;78.20;;;;;;4991843;28;20121;-53
2023/12/19 04:36:58;;;;;;;10.80;8.55;;;8.40;78.30;;;;;;4990782;28;20535;-57
2023/12/19 04:39:25;;;;;;;9.45;7.72;;;8.40;78.30;;;;;;4990769;28;20523;-56
2023/12/19 04:41:54;;;;;;;10.45;7.95;;;8.40;78.40;;;;;;4991980;28;20428;-57
2023/12/19 04:44:22;;;;;;;9.23;7.32;;;8.40;78.50;;;;;;4990321;28;20497;-57
2023/12/19 04:46:49;;;;;;;10.07;7.70;;;8.40;78.50;;;;;;4990494;28;20512;-55
2023/12/19 04:49:15;;;;;;;10.57;7.95;;;8.50;78.50;;;;;;4987244;28;20081;-53
2023/12/19 04:51:42;;;;;;;9.93;7.50;;;8.50;78.50;;;;;;4991107;28;20042;-53
2023/12/19 04:54:10;;;;;;;8.57;6.90;;;8.50;78.50;;;;;;4990724;28;20073;-55
2023/12/19 04:56:37;;;;;;;10.73;6.38;;;8.50;78.60;;;;;;4990215;28;20047;-56
2023/12/19 04:59:04;;;;;;;7.53;6.05;;;8.50;78.60;;;;;;4995083;28;20045;-56
2023/12/19 05:01:33;;;;;;;10.45;6.75;;;8.50;78.60;;;;;;4990389;28;20576;-57
2023/12/19 05:04:00;;;;;;;9.00;6.82;;;8.50;78.60;;;;;;4990262;28;20540;-56
2023/12/19 05:06:27;;;;;;;7.85;6.45;;;8.60;78.60;;;;;;4989830;28;20129;-55
2023/12/19 05:08:53;;;;;;;7.95;7.10;;;8.50;78.50;;;;;;4984628;28;20125;-57
2023/12/19 05:11:20;;;;;;;9.35;7.15;;;8.60;78.50;;;;;;4991643;28;20053;-54
2023/12/19 05:13:49;;;;;;;8.80;6.35;;;8.60;78.50;;;;;;4989837;28;20105;-54
2023/12/19 05:16:18;;;;;;;8.05;6.30;;;8.60;78.50;;;;;;4990896;28;20046;-56
2023/12/19 05:18:45;;;;;;;8.80;6.35;;;8.60;78.50;;;;;;4989906;28;20046;-53
2023/12/19 05:21:20;;;;;;;9.38;6.60;;;8.60;78.40;;;;;;4990442;28;20425;-54
2023/12/19 05:23:50;;;;;;;6.85;5.70;;;8.60;78.50;;;;;;4991983;28;20377;-54
2023/12/19 05:26:17;;;;;;;7.90;6.13;;;8.70;78.50;;;;;;4990686;28;20452;-55
2023/12/19 05:28:46;;;;;;;10.18;6.82;;;8.70;78.50;;;;;;4989757;28;20061;-56
2023/12/19 05:31:18;;;;;;;8.77;5.90;;;8.70;78.50;;;;;;4991700;28;20104;-55
2023/12/19 05:33:45;;;;;;;7.95;6.55;;;8.70;78.50;;;;;;4989737;28;20054;-56
2023/12/19 05:36:14;;;;;;;7.82;7.03;;;8.70;78.50;;;;;;4990291;28;20088;-55
2023/12/19 05:38:42;;;;;;;8.60;7.18;;;8.70;78.50;;;;;;4989470;28;20594;-56
2023/12/19 05:41:14;;;;;;;8.02;6.88;;;8.70;78.50;;;;;;4995275;28;20061;-54
2023/12/19 05:43:41;;;;;;;7.70;6.40;;;8.80;78.50;;;;;;4988020;28;20088;-53
2023/12/19 05:46:10;;;;;;;8.40;6.47;;;8.80;78.50;;;;;;4990344;28;20109;-54
2023/12/19 05:48:36;;;;;;;7.90;6.50;;;8.80;78.50;;;;;;4987579;28;20070;-55
2023/12/19 05:51:04;;;;;;;8.55;6.60;;;8.80;78.50;;;;;;4990648;28;20034;-54
2023/12/19 05:53:30;;;;;;;8.18;6.72;;;8.80;78.40;;;;;;4991252;28;20200;-54
2023/12/19 05:55:57;;;;;;;9.10;6.65;;;8.80;78.40;;;;;;4989898;28;20042;-53
2023/12/19 05:58:26;;;;;;;9.20;7.28;;;8.80;78.30;;;;;;4990761;28;20468;-53
2023/12/19 06:00:55;;;;;;;8.43;7.20;;;8.90;78.40;;;;;;4990081;28;20740;-56
2023/12/19 06:03:25;;;;;;;10.10;7.38;;;8.90;78.40;;;;;;4989775;28;20041;-57
2023/12/19 06:05:54;;;;;;;8.18;7.07;;;8.90;78.30;;;;;;4989521;28;20477;-53
2023/12/19 06:08:22;;;;;;;10.73;7.35;;;8.90;78.30;;;;;;4991583;28;20050;-52
2023/12/19 06:10:51;;;;;;;9.63;8.32;;;8.90;78.30;;;;;;4991416;28;20051;-52
2023/12/19 06:13:18;;;;;;;10.25;7.40;;;9.00;78.30;;;;;;4989639;28;20101;-57
2023/12/19 06:15:47;;;;;;;8.75;7.70;;;9.00;78.30;;;;;;4989420;28;20069;-58
2023/12/19 06:18:18;;;;;;;9.43;7.32;;;9.00;78.30;;;;;;4993001;28;20049;-55
2023/12/19 06:20:47;;;;;;;11.35;7.85;;;9.00;78.20;;;;;;4993146;28;20042;-57
2023/12/19 06:23:13;;;;;;;9.20;7.80;;;9.00;78.20;;;;;;4993758;28;20456;-57
2023/12/19 06:25:42;;;;;;;11.35;8.95;;;9.00;78.20;;;;;;4993307;28;20125;-56
2023/12/19 06:28:14;;;;;;;11.40;7.88;;;9.10;78.20;;;;;;4993214;28;20057;-57
2023/12/19 06:30:43;;;;;;;9.10;7.72;;;9.10;78.20;;;;;;4992250;28;20069;-57
2023/12/19 06:33:09;;;;;;;9.82;8.52;;;9.10;78.20;;;;;;4992892;28;20052;-55
2023/12/19 06:35:43;;;;;;;9.88;8.15;;;9.10;78.10;;;;;;4992631;28;20050;-55
2023/12/19 06:38:10;;;;;;;9.73;8.05;;;9.10;78.20;;;;;;4993054;28;20043;-56
2023/12/19 06:40:37;;;;;;;10.45;7.72;;;9.10;78.10;;;;;;4992972;28;20532;-53
2023/12/19 06:43:05;;;;;;;11.60;8.65;;;9.10;78.10;;;;;;4992295;28;20046;-57
2023/12/19 06:45:33;;;;;;;9.00;7.35;;;9.20;78.20;;;;;;4992494;28;20049;-55
2023/12/19 06:48:01;;;;;;;9.57;7.70;;;9.20;78.10;;;;;;4992868;28;20046;-55
2023/12/19 06:50:31;;;;;;;9.48;7.78;;;9.20;78.00;;;;;;4995358;28;20827;-56
2023/12/19 06:52:57;;;;;;;10.20;7.63;;;9.20;78.00;;;;;;4991081;28;20378;-58
2023/12/19 06:55:25;;;;;;;9.05;7.57;;;9.30;78.00;;;;;;4994703;28;20054;-56
2023/12/19 06:57:55;;;;;;;13.10;8.02;;;9.30;77.90;;;;;;4993909;28;20125;-58
2023/12/19 07:00:21;;;;;;;9.85;7.78;;;9.30;77.90;;;;;;4992883;28;20559;-56
2023/12/19 07:02:48;;;;;;;10.45;7.75;;;9.30;77.90;;;;;;4992824;28;20047;-54
2023/12/19 07:05:15;;;;;;;8.50;7.38;;;9.30;77.80;;;;;;4992774;28;20038;-56
2023/12/19 07:07:44;;;;;;;13.23;7.68;;;9.30;77.70;;;;;;4995726;28;20077;-54
2023/12/19 07:10:11;;;;;;;11.75;7.90;;;9.30;77.70;;;;;;4992644;28;20520;-55
2023/12/19 07:12:40;;;;;;;11.32;7.78;;;9.30;77.70;;;;;;4990267;28;20126;-58
2023/12/19 07:15:10;;;;;;;9.10;7.70;;;9.30;77.60;;;;;;4994510;28;20050;-58
2023/12/19 07:17:37;;;;;;;11.52;7.90;;;9.30;77.50;;;;;;4989778;28;20046;-57
2023/12/19 07:20:04;;;;;;;10.25;6.57;;;9.40;77.50;;;;;;4992799;28;20117;-57
2023/12/19 07:22:31;;;;;;;9.85;7.13;;;9.40;77.40;;;;;;4994347;28;20042;-55
2023/12/19 07:24:58;;;;;;;9.10;7.38;;;9.40;77.30;;;;;;4993276;28;20539;-55
2023/12/19 07:27:24;;;;;;;12.70;6.28;;;9.30;77.20;;;;;;4992595;28;20047;-52
2023/12/19 07:29:51;;;;;;;10.18;7.28;;;9.40;77.30;;;;;;4991833;28;20038;-53
2023/12/19 07:32:18;;;;;;;8.88;7.70;;;9.40;77.30;;;;;;4992472;28;20669;-58
2023/12/19 07:34:44;;;;;;;7.80;7.00;;;9.40;77.30;;;;;;4992995;28;20046;-56
2023/12/19 07:37:12;;;;;;;8.40;6.20;;;9.40;77.30;;;;;;4989062;28;20046;-58
2023/12/19 07:39:39;;;;;;;7.10;6.38;;;9.40;77.30;;;;;;4992273;28;20057;-57
2023/12/19 07:42:06;;;;;;;8.63;6.75;;;9.40;77.20;;;;;;4994530;28;20038;-55
2023/12/19 07:44:36;;;;;;;10.25;7.30;;;9.50;77.20;;;;;;4987684;28;20053;-57
2023/12/19 07:47:03;;;;;;;8.25;5.72;;;9.50;77.20;;;;;;4992356;28;20038;-56
2023/12/19 07:49:33;;;;;;;8.88;6.70;;;9.50;77.20;;;;;;4974823;28;20069;-57
2023/12/19 07:51:59;;;;;;;8.35;5.70;;;9.50;77.10;;;;;;4988881;28;20054;-56
2023/12/19 07:54:29;;;;;;;8.50;6.13;;;9.50;77.10;;;;;;4992859;28;20112;-56
2023/12/19 07:56:56;;;;;;;9.85;6.55;;;9.50;77.10;;;;;;4991455;28;20101;-59
2023/12/19 07:59:22;;;;;;;8.10;6.93;;;9.50;77.10;;;;;;4993029;28;20053;-55
2023/12/19 08:01:49;;;;;;;7.05;5.90;;;9.50;77.10;;;;;;4991900;28;20117;-55
2023/12/19 08:04:17;;;;;;;9.32;6.53;;;9.50;77.10;;;;;;4991140;28;20047;-58
2023/12/19 08:06:44;;;;;;;9.45;5.47;;;9.60;77.10;;;;;;4993284;28;20042;-56
2023/12/19 08:09:13;;;;;;;8.45;6.78;;;9.60;77.10;;;;;;4991573;28;20053;-54
2023/12/19 08:11:40;;;;;;;8.80;5.90;;;9.60;77.10;;;;;;4988739;28;20074;-53
2023/12/19 08:14:07;;;;;;;10.10;5.43;;;9.60;77.10;;;;;;4994038;28;20084;-55
2023/12/19 08:16:34;;;;;;;8.18;5.30;;;9.60;77.10;;;;;;4991014;28;20046;-56
2023/12/19 08:19:03;;;;;;;7.32;5.53;;;9.60;77.00;;;;;;4986734;28;20556;-57
2023/12/19 08:21:32;;;;;;;7.72;5.78;;;9.70;77.00;;;;;;4991689;28;20104;-57
2023/12/19 08:23:58;;;;;;;7.07;5.47;;;9.70;76.90;;;;;;4992812;28;20042;-58
2023/12/19 08:26:25;;;;;;;7.80;5.15;;;9.70;76.90;;;;;;4991576;28;20124;-56
2023/12/19 08:28:54;;;;;;;9.77;5.95;;;9.70;76.90;;;;;;4991386;28;20125;-54
2023/12/19 08:31:23;;;;;;;7.90;5.65;;;9.70;76.80;;;;;;4991323;28;20085;-58
2023/12/19 08:33:54;;;;;;;6.40;5.35;;;9.80;76.80;;;;;;4993136;28;20046;-55
2023/12/19 08:36:21;;;;;;;7.20;5.35;;;9.70;76.70;;;;;;4991333;28;20077;-55
2023/12/19 08:39:01;;;;;;;8.63;5.35;;;9.80;76.70;;;;;;4991125;28;20129;-55
2023/12/19 08:41:28;;;;;;;6.55;5.13;;;9.80;76.70;;;;;;4990406;28;20101;-59
2023/12/19 08:43:54;;;;;;;6.70;4.82;;;9.90;76.70;;;;;;4991785;28;20120;-56
2023/12/19 08:46:24;;;;;;;7.20;4.40;;;9.90;76.70;;;;;;4991189;28;20122;-52
2023/12/19 08:48:51;;;;;;;6.25;4.38;;;9.90;76.60;;;;;;4991013;28;20057;-56
2023/12/19 08:51:20;;;;;;;5.97;4.50;;;9.90;76.60;;;;;;4992164;28;20046;-58
2023/12/19 08:53:47;;;;;;;8.93;5.03;;;9.90;76.60;;;;;;4993650;28;20057;-55
2023/12/19 08:56:15;;;;;;;4.78;4.13;;;9.90;76.50;;;;;;4991042;28;20501;-56
2023/12/19 08:58:44;;;;;;;5.40;4.40;;;10.00;76.50;;;;;;4990583;28;20070;-53
2023/12/19 09:01:11;;;;;;;5.72;4.18;;;10.00;76.40;;;;;;4991878;28;20056;-56
2023/12/19 09:03:39;;;;;;;5.28;4.45;;;10.00;76.40;;;;;;4987790;28;20046;-57
2023/12/19 09:06:07;;;;;;;7.20;3.95;;;10.10;76.40;;;;;;4990749;28;20062;-54
2023/12/19 09:08:33;;;;;;;5.53;3.80;;;10.10;76.30;;;;;;4991060;28;20046;-55
2023/12/19 09:11:00;;;;;;;8.93;4.63;;;10.10;76.30;;;;;;4993167;28;20045;-56
2023/12/19 09:13:28;;;;;;;6.18;4.10;;;10.10;76.20;;;;;;4989509;28;20561;-54
2023/12/19 09:15:55;;;;;;;6.25;4.22;;;10.10;76.20;;;;;;4990394;28;20489;-55
2023/12/19 09:18:24;;;;;;;5.15;4.18;;;10.10;76.20;;;;;;4990771;28;20074;-58
2023/12/19 09:20:51;;;;;;;5.70;4.03;;;10.10;76.20;;;;;;4992628;28;20097;-55
2023/12/19 09:23:18;;;;;;;5.72;3.63;;;10.20;76.20;;;;;;4991227;28;20085;-53
2023/12/19 09:25:47;;;;;;;7.55;3.63;;;10.20;76.10;;;;;;4991762;28;20115;-58
2023/12/19 09:28:13;;;;;;;4.05;3.65;;;10.20;76.10;;;;;;4989750;28;20073;-53
2023/12/19 09:30:40;;;;;;;7.03;3.88;;;10.30;76.20;;;;;;4990544;28;20046;-58
2023/12/19 09:33:07;;;;;;;5.50;3.45;;;10.30;76.10;;;;;;4993569;28;20038;-55
2023/12/19 09:35:34;;;;;;;4.90;3.47;;;10.30;75.90;;;;;;4973137;28;20448;-55
2023/12/19 09:38:04;;;;;;;5.65;3.53;;;10.30;75.90;;;;;;4990305;28;20090;-56
2023/12/19 09:40:34;;;;;;;7.07;3.60;;;10.40;75.90;;;;;;4992015;28;20125;-55
2023/12/19 09:43:02;;;;;;;5.00;3.25;;;10.40;75.90;;;;;;4990505;28;20035;-57
2023/12/19 09:45:29;;;;;;;3.20;2.83;;;10.40;75.90;;;;;;4990932;28;20437;-56
2023/12/19 09:47:59;;;;;;;6.20;3.78;;;10.40;75.80;;;;;;4990460;28;20429;-55
2023/12/19 09:50:27;;;;;;;7.07;3.50;;;10.40;75.70;;;;;;4993822;28;20066;-54
2023/12/19 09:52:57;;;;;;;5.57;3.30;;;10.40;75.70;;;;;;4986292;28;20057;-55
2023/12/19 09:55:28;;;;;;;5.72;3.83;;;10.40;75.80;;;;;;4997138;28;20394;-54
2023/12/19 09:57:58;;;;;;;4.40;3.30;;;10.50;75.90;;;;;;4996537;28;20037;-55
2023/12/19 10:00:32;;;;;;;3.72;2.92;;;10.50;75.90;;;;;;4992989;28;20373;-54
2023/12/19 10:02:59;;;;;;;7.72;4.18;;;10.50;75.90;;;;;;4994100;28;20062;-54
2023/12/19 10:05:26;;;;;;;5.00;3.55;;;10.50;75.80;;;;;;4993953;28;20058;-55
2023/12/19 10:07:52;;;;;;;5.82;3.60;;;10.50;75.90;;;;;;4994256;28;20433;-57
2023/12/19 10:10:19;;;;;;;5.70;3.63;;;10.40;75.90;;;;;;4994139;28;20042;-59
2023/12/19 10:12:49;;;;;;;4.68;3.97;;;10.40;76.10;;;;;;4994661;28;20042;-53
2023/12/19 10:15:25;;;;;;;5.40;4.00;;;10.40;76.20;;;;;;4995483;28;20045;-53
2023/12/19 10:18:10;;;;;;;6.22;3.65;;;10.40;76.30;;;;;;4992103;28;20042;-55
2023/12/19 10:20:38;;;;;;;3.83;3.30;;;10.40;76.70;;;;;;4990203;28;20046;-59
2023/12/19 10:23:05;;;;;;;6.22;3.95;;;10.40;76.50;;;;;;4995754;28;20046;-54
2023/12/19 10:25:35;;;;;;;4.00;3.42;;;10.40;76.60;;;;;;4995649;28;20452;-55
2023/12/19 10:28:13;;;;;;;7.90;4.07;;;10.40;76.70;;;;;;4990241;28;20038;-60
2023/12/19 10:30:43;;;;;;;4.72;3.75;;;10.40;76.90;;;;;;4993757;28;20050;-56
2023/12/19 10:33:13;;;;;;;5.45;3.70;;;10.40;77.00;;;;;;4992441;28;20129;-56
2023/12/19 10:35:44;;;;;;;6.40;4.60;;;10.30;76.90;;;;;;4993330;28;20042;-57
2023/12/19 10:38:11;;;;;;;6.68;4.10;;;10.30;77.10;;;;;;4990133;28;20125;-56
2023/12/19 10:40:37;;;;;;;7.65;4.57;;;10.30;77.10;;;;;;4989450;28;20042;-56
2023/12/19 10:43:05;;;;;;;7.80;4.25;;;10.30;77.30;;;;;;4995706;28;20049;-54
2023/12/19 10:45:38;;;;;;;5.45;4.00;;;10.30;77.50;;;;;;4993751;28;20074;-56
2023/12/19 10:48:05;;;;;;;4.13;3.57;;;10.30;77.50;;;;;;4993324;28;20038;-57
2023/12/19 10:50:36;;;;;;;4.63;4.10;;;10.20;77.50;;;;;;4993316;28;20286;-56
2023/12/19 10:53:06;;;;;;;5.15;3.88;;;10.20;77.60;;;;;;4995668;28;20046;-58
2023/12/19 10:55:41;;;;;;;5.00;3.83;;;10.20;77.70;;;;;;4995762;28;20046;-56
2023/12/19 10:58:10;;;;;;;4.90;4.25;;;10.20;77.90;;;;;;4995956;28;20030;-59
2023/12/19 11:00:42;;;;;;;6.47;4.65;;;10.20;77.90;;;;;;4993179;28;20046;-55
2023/12/19 11:03:41;;;;;;;5.28;4.28;;;10.20;78.10;;;;;;4992985;28;20397;-58
2023/12/19 11:06:09;;;;;;;4.85;3.50;;;10.10;78.60;;;;;;4995277;28;20121;-56
2023/12/19 11:08:44;;;;;;;7.22;4.32;;;10.10;78.10;;;;;;4993187;28;20093;-57
2023/12/19 11:11:39;;;;;;;5.53;4.22;;;10.10;78.30;;;;;;4989468;28;20053;-57
2023/12/19 11:14:08;;;;;;;5.47;3.70;;;10.10;78.30;;;;;;4988883;28;20089;-58
2023/12/19 11:16:49;;;;;;;7.47;4.50;;;10.10;78.40;;;;;;4993724;28;20047;-57
2023/12/19 11:19:27;;;;;;;5.45;4.43;;;10.10;78.40;;;;;;4992840;28;20409;-57
2023/12/19 11:22:15;;;;;;;6.40;4.85;;;10.10;78.70;;;;;;4992734;28;20502;-59
2023/12/19 11:25:09;;;;;;;7.68;4.60;;;10.10;78.70;;;;;;4982600;28;20046;-56
2023/12/19 11:27:58;;;;;;;7.68;4.55;;;10.10;79.00;;;;;;4989709;28;20519;-56
2023/12/19 11:30:32;;;;;;;6.47;4.85;;;10.10;78.80;;;;;;4992531;28;20046;-58
2023/12/19 11:32:59;;;;;;;7.88;4.47;;;10.10;78.80;;;;;;4994349;28;20054;-57
2023/12/19 11:35:32;;;;;;;6.95;5.60;;;10.00;78.70;;;;;;4992471;28;20050;-56
2023/12/19 11:38:20;;;;;;;6.97;5.28;;;10.00;78.80;;;;;;4992106;28;20046;-56
2023/12/19 11:40:47;;;;;;;7.95;4.90;;;10.00;79.20;;;;;;4989573;28;20504;-57
2023/12/19 11:43:29;;;;;;;7.78;5.25;;;10.00;78.80;;;;;;4973886;28;20382;-55
2023/12/19 11:46:03;;;;;;;7.22;5.65;;;10.00;79.40;;;;;;4992054;28;20053;-56
2023/12/19 11:48:35;;;;;;;6.65;5.30;;;10.00;79.30;;;;;;4992391;28;20057;-58
2023/12/19 11:51:03;;;;;;;7.30;6.20;;;9.90;79.20;;;;;;4994186;28;20044;-59
2023/12/19 11:53:30;;;;;;;8.55;5.93;;;9.90;79.20;;;;;;4992052;28;20457;-60
2023/12/19 11:56:11;;;;;;;6.72;5.53;;;10.00;79.30;;;;;;4993946;28;20089;-57
2023/12/19 11:58:48;;;;;;;5.85;5.00;;;9.90;79.80;;;;;;4991092;28;20409;-58
2023/12/19 12:01:15;;;;;;;8.60;6.00;;;9.90;79.70;;;;;;4991879;28;20034;-57
2023/12/19 12:03:42;;;;;;;9.30;5.88;;;9.90;79.60;;;;;;4992061;28;20042;-56
2023/12/19 12:06:10;;;;;;;8.10;6.10;;;9.90;79.60;;;;;;4991358;28;20117;-57
2023/12/19 12:08:37;;;;;;;9.00;6.03;;;9.90;79.70;;;;;;4994330;28;20038;-60
2023/12/19 12:11:06;;;;;;;7.65;5.80;;;9.90;79.90;;;;;;4991642;28;20039;-57
2023/12/19 12:13:34;;;;;;;8.02;5.80;;;9.90;79.90;;;;;;4992691;28;20132;-57
2023/12/19 12:16:01;;;;;;;9.35;5.97;;;9.90;79.80;;;;;;4991029;28;20116;-57
2023/12/19 12:18:30;;;;;;;7.95;5.97;;;9.90;79.80;;;;;;4991289;28;20133;-59
2023/12/19 12:21:08;;;;;;;10.50;6.65;;;9.90;79.90;;;;;;4990319;28;20034;-59
2023/12/19 12:23:36;;;;;;;9.15;6.68;;;9.90;80.30;;;;;;4993461;28;20070;-57
2023/12/19 12:26:05;;;;;;;9.45;6.32;;;9.90;80.00;;;;;;4992083;28;20046;-60
2023/12/19 12:28:33;;;;;;;11.50;6.28;;;9.90;80.10;;;;;;4991596;28;20093;-57
2023/12/19 12:31:01;;;;;;;8.55;6.80;;;9.90;80.10;;;;;;4991041;28;20038;-59
2023/12/19 12:33:28;;;;;;;8.68;6.47;;;10.00;80.30;;;;;;4995862;28;20038;-57
2023/12/19 12:35:57;;;;;;;10.43;6.75;;;10.00;80.40;;;;;;4973351;28;20447;-57
2023/12/19 12:38:25;;;;;;;8.88;6.25;;;10.00;80.40;;;;;;4991235;28;20058;-56
2023/12/19 12:40:58;;;;;;;10.98;6.55;;;10.00;80.30;;;;;;4973845;28;20413;-59
2023/12/19 12:43:50;;;;;;;7.60;5.97;;;10.00;80.30;;;;;;4994695;28;20564;-56
2023/12/19 12:46:21;;;;;;;8.52;6.30;;;10.00;80.40;;;;;;4989780;28;20481;-57
2023/12/19 12:48:54;;;;;;;7.38;5.95;;;10.00;80.50;;;;;;4991493;28;20120;-60
2023/12/19 12:51:22;;;;;;;8.80;6.47;;;10.00;80.60;;;;;;4992556;28;20042;-60
2023/12/19 12:54:02;;;;;;;7.63;6.25;;;10.00;80.40;;;;;;4994222;28;20555;-59
2023/12/19 12:56:32;;;;;;;10.43;7.10;;;10.00;80.40;;;;;;4991079;28;20046;-60
2023/12/19 12:59:06;;;;;;;11.27;6.45;;;10.00;80.30;;;;;;4994596;28;20043;-59